Time;durP1;ratioP1;P1;durP2;ratioP2;P2;SDS_P1;SDS_P2;PMS_P1;PMS_P2;Temp;Humidity;BMP_temperature;BMP_pressure;BME280_temperature;BME280_humidity;BME280_pressure;Samples;Min_cycle;Max_cycle;Signal;HPM_P1;HPM_P2
2021/04/25 00:02:24;;;;;;;98.58;51.15;;;;;;;5.76;67.57;99397.58;4297724;83;21170;-88
2021/04/25 00:08:26;;;;;;;95.32;47.48;;;;;;;5.65;67.68;99398.33;4371603;81;21195;-89
2021/04/25 00:14:28;;;;;;;119.80;58.68;;;;;;;5.73;68.41;99404.26;4386092;81;21570;-90
2021/04/25 00:20:31;;;;;;;105.87;51.42;;;;;;;5.67;68.00;99397.45;4459640;80;21132;-91
2021/04/25 00:26:32;;;;;;;101.97;51.00;;;;;;;5.50;68.28;99397.56;4459661;80;21180;-90
2021/04/25 00:32:35;;;;;;;100.95;51.60;;;;;;;5.57;69.15;99401.91;4459925;80;21180;-89
2021/04/25 00:38:36;;;;;;;112.20;55.08;;;;;;;5.74;69.39;99397.69;4386406;81;21133;-90
2021/04/25 00:44:38;;;;;;;91.80;49.23;;;;;;;5.68;69.28;99380.81;4459049;80;21165;-90
2021/04/25 00:50:40;;;;;;;96.20;47.27;;;;;;;5.58;69.82;99396.15;4459504;80;21169;-89
2021/04/25 00:56:42;;;;;;;91.67;44.90;;;;;;;5.66;69.71;99383.61;4459863;80;21158;-90
2021/04/25 01:02:44;;;;;;;86.87;44.75;;;;;;;5.77;70.06;99386.16;4361735;81;21129;-90
2021/04/25 01:08:45;;;;;;;88.87;45.30;;;;;;;5.86;70.06;99389.05;4311575;83;21167;-89
2021/04/25 01:14:47;;;;;;;93.35;45.73;;;;;;;5.89;70.21;99392.45;4339170;82;21303;-89
2021/04/25 01:20:59;;;;;;;81.90;42.73;;;;;;;5.81;69.90;99374.87;4386573;81;21153;-90
2021/04/25 01:27:01;;;;;;;97.42;46.65;;;;;;;5.70;70.46;99378.54;4339106;81;21196;-90
2021/04/25 01:33:03;;;;;;;87.12;43.17;;;;;;;5.58;70.13;99381.77;4386976;81;21152;-89
2021/04/25 01:39:06;;;;;;;91.32;45.30;;;;;;;5.56;70.86;99378.02;4284833;83;21156;-89
2021/04/25 01:45:16;;;;;;;99.85;45.38;;;;;;;5.62;70.73;99377.27;4263084;83;21156;-89
2021/04/25 01:51:12;;;;;;;78.25;41.00;;;;;;;5.45;70.42;99361.13;4310436;81;21191;-89
2021/04/25 01:57:14;;;;;;;80.35;40.60;;;;;;;5.40;70.91;99370.27;4286583;83;21586;-90
2021/04/25 02:03:16;;;;;;;78.67;40.75;;;;;;;5.33;71.44;99375.98;4311831;83;21124;-90
2021/04/25 02:09:18;;;;;;;85.83;42.80;;;;;;;5.51;71.57;99381.52;4311062;82;21144;-89
2021/04/25 02:15:21;;;;;;;77.10;39.30;;;;;;;5.42;71.19;99359.86;4311164;83;21096;-90
2021/04/25 02:21:24;;;;;;;74.35;38.63;;;;;;;5.44;71.72;99360.87;4287343;83;21143;-89
2021/04/25 02:27:26;;;;;;;77.50;38.83;;;;;;;5.37;71.70;99359.27;4311428;83;21585;-88
2021/04/25 02:33:27;;;;;;;84.28;39.60;;;;;;;5.23;71.54;99354.67;4263691;83;21167;-88
2021/04/25 02:39:29;;;;;;;74.85;39.13;;;;;;;5.18;71.97;99353.51;4312119;82;21152;-90
2021/04/25 02:45:32;;;;;;;74.00;37.48;;;;;;;5.12;72.19;99349.41;4259534;83;21139;-88
2021/04/25 02:51:34;;;;;;;79.87;41.83;;;;;;;5.06;72.67;99343.37;4311717;83;21644;-90
2021/04/25 02:57:36;;;;;;;87.33;40.88;;;;;;;4.99;72.17;99343.11;4287142;83;21160;-89
2021/04/25 03:03:38;;;;;;;83.97;41.10;;;;;;;4.80;72.42;99343.55;4311664;83;21159;-89
2021/04/25 03:09:39;;;;;;;78.02;38.33;;;;;;;4.82;72.85;99347.30;4311031;82;21183;-90
2021/04/25 03:15:41;;;;;;;74.03;37.65;;;;;;;4.69;72.23;99341.53;4311475;83;21167;-89
2021/04/25 03:21:43;;;;;;;79.58;39.33;;;;;;;4.38;72.76;99334.28;4311448;83;21142;-89
2021/04/25 03:27:45;;;;;;;67.05;33.38;;;;;;;4.32;73.49;99337.72;4310827;83;21155;-89
2021/04/25 03:33:47;;;;;;;73.37;36.13;;;;;;;4.49;73.75;99336.86;4311129;83;21112;-90
2021/04/25 03:39:49;;;;;;;69.07;36.65;;;;;;;4.59;73.21;99329.14;4459394;80;21192;-90
2021/04/25 03:45:51;;;;;;;75.32;37.78;;;;;;;4.53;73.74;99327.75;4459345;80;21157;-88
2021/04/25 03:51:55;;;;;;;73.50;35.30;;;;;;;4.47;73.68;99330.97;4435286;80;21153;-90
2021/04/25 03:57:57;;;;;;;57.00;31.12;;;;;;;4.43;73.40;99334.88;4441200;80;21134;-89
2021/04/25 04:03:59;;;;;;;73.02;36.30;;;;;;;4.42;74.20;99332.50;4380768;81;21170;-88
2021/04/25 04:10:01;;;;;;;80.35;39.92;;;;;;;4.49;74.24;99339.02;4378799;81;21162;-88
2021/04/25 04:16:03;;;;;;;73.80;36.35;;;;;;;4.51;74.09;99334.05;4371924;81;21222;-88
2021/04/25 04:22:05;;;;;;;66.80;34.98;;;;;;;4.47;74.41;99335.03;4319248;81;21559;-83
2021/04/25 04:28:06;;;;;;;72.05;34.18;;;;;;;4.52;74.59;99334.30;4329490;81;21123;-82
2021/04/25 04:34:08;;;;;;;71.00;35.33;;;;;;;4.76;74.82;99338.53;4334022;81;21154;-82
2021/04/25 04:40:11;;;;;;;69.10;35.28;;;;;;;4.87;74.64;99339.52;4363576;80;21162;-83
2021/04/25 04:46:12;;;;;;;68.50;33.60;;;;;;;4.92;74.53;99336.04;4283243;81;21124;-82
2021/04/25 04:52:14;;;;;;;66.57;33.55;;;;;;;5.10;75.00;99346.22;4278654;82;21158;-82
2021/04/25 04:58:19;;;;;;;59.35;32.15;;;;;;;5.27;74.41;99342.02;4346972;81;21168;-82
2021/04/25 05:04:20;;;;;;;68.22;36.17;;;;;;;5.40;75.00;99353.98;4318273;81;21156;-83
2021/04/25 05:10:22;;;;;;;77.27;39.45;;;;;;;5.63;74.88;99355.21;4366852;81;21753;-82
2021/04/25 05:16:23;;;;;;;79.87;41.68;;;;;;;5.76;74.19;99343.24;4323887;81;21161;-82
2021/04/25 05:22:25;;;;;;;72.67;38.13;;;;;;;5.89;74.02;99347.63;4256159;83;21167;-82
2021/04/25 05:28:27;;;;;;;79.35;40.80;;;;;;;6.02;74.00;99343.02;4284440;81;21227;-82
2021/04/25 05:34:28;;;;;;;86.63;41.05;;;;;;;6.27;73.74;99348.17;4339714;81;21116;-82
2021/04/25 05:40:30;;;;;;;81.45;38.90;;;;;;;6.47;73.39;99348.42;4336722;80;21171;-82
2021/04/25 05:46:33;;;;;;;73.70;40.90;;;;;;;6.62;72.95;99349.91;4249901;81;21322;-82
2021/04/25 05:52:35;;;;;;;84.13;40.92;;;;;;;6.73;72.60;99346.95;4270245;81;21277;-83
2021/04/25 05:58:36;;;;;;;88.10;42.00;;;;;;;6.88;72.34;99344.09;4258919;83;21134;-82
2021/04/25 06:04:40;;;;;;;77.22;39.03;;;;;;;7.02;72.18;99345.33;4311127;81;21184;-82
2021/04/25 06:10:41;;;;;;;78.40;38.60;;;;;;;7.25;72.08;99347.77;4323227;81;21203;-82
2021/04/25 06:16:42;;;;;;;74.35;39.73;;;;;;;7.53;71.68;99347.22;4327698;81;21149;-82
2021/04/25 06:22:45;;;;;;;74.05;37.95;;;;;;;7.81;71.60;99348.61;4324175;81;21285;-83
2021/04/25 06:28:47;;;;;;;77.40;39.95;;;;;;;7.88;71.14;99341.97;4269448;81;21182;-83
2021/04/25 06:34:48;;;;;;;71.57;36.53;;;;;;;8.09;70.78;99343.91;4327094;81;21346;-83
2021/04/25 06:40:50;;;;;;;68.25;35.48;;;;;;;8.39;70.55;99337.50;4274031;82;21160;-83
2021/04/25 06:46:52;;;;;;;67.62;33.35;;;;;;;8.41;70.15;99347.50;4327701;82;21665;-83
2021/04/25 06:52:53;;;;;;;47.05;25.65;;;;;;;8.97;69.12;99346.89;4435387;78;21615;-83
2021/04/25 06:58:55;;;;;;;46.98;25.02;;;;;;;9.43;68.22;99340.51;4493899;78;21134;-83
2021/04/25 07:04:57;;;;;;;50.65;22.82;;;;;;;9.72;68.02;99342.45;4293436;81;21287;-83
2021/04/25 07:10:59;;;;;;;45.63;25.02;;;;;;;10.04;67.06;99341.91;4355718;81;21196;-82
2021/04/25 07:17:00;;;;;;;49.18;26.35;;;;;;;10.37;66.63;99345.45;4323408;81;21625;-83
2021/04/25 07:23:02;;;;;;;43.92;24.27;;;;;;;10.72;65.89;99346.05;4348558;81;21176;-83
2021/04/25 07:29:04;;;;;;;37.05;21.40;;;;;;;10.80;64.41;99345.02;4279073;81;21339;-82
2021/04/25 07:35:07;;;;;;;28.60;16.67;;;;;;;10.73;64.29;99342.95;4387668;81;21141;-83
2021/04/25 07:41:11;;;;;;;34.35;15.65;;;;;;;10.80;62.79;99344.44;4267348;81;21153;-83
2021/04/25 07:47:13;;;;;;;22.85;13.05;;;;;;;10.86;62.67;99336.69;4337315;81;21189;-83
2021/04/25 07:53:17;;;;;;;19.87;9.68;;;;;;;10.88;62.02;99340.63;4352203;81;21153;-83
2021/04/25 07:59:19;;;;;;;15.50;8.70;;;;;;;11.12;60.93;99336.67;4340979;81;21135;-83
2021/04/25 08:05:20;;;;;;;27.85;13.72;;;;;;;11.49;59.62;99331.31;4299136;81;21170;-84
2021/04/25 08:11:22;;;;;;;19.85;9.58;;;;;;;11.93;59.54;99324.80;4384534;81;21184;-83
2021/04/25 08:17:24;;;;;;;19.52;9.63;;;;;;;11.74;57.61;99323.63;4293402;81;21177;-83
2021/04/25 08:23:25;;;;;;;14.85;6.53;;;;;;;11.67;57.29;99316.68;4299366;81;21209;-83
2021/04/25 08:29:27;;;;;;;18.00;7.28;;;;;;;11.61;56.10;99317.35;4319975;81;21173;-84
2021/04/25 08:35:28;;;;;;;15.88;6.87;;;;;;;11.44;54.97;99313.81;4326568;81;21179;-83
2021/04/25 08:41:30;;;;;;;12.53;6.80;;;;;;;11.25;53.76;99317.48;4288107;81;21178;-84
2021/04/25 08:47:37;;;;;;;13.80;6.67;;;;;;;11.28;49.97;99311.83;4304665;81;21340;-83
2021/04/25 08:53:40;;;;;;;19.48;8.35;;;;;;;11.85;53.23;99301.23;4294164;81;21597;-84
2021/04/25 08:59:42;;;;;;;11.35;6.42;;;;;;;12.50;49.66;99300.06;4250113;81;21149;-83
2021/04/25 09:05:44;;;;;;;9.53;5.00;;;;;;;11.99;50.39;99297.27;4298705;83;21162;-83
2021/04/25 09:11:50;;;;;;;8.93;4.85;;;;;;;11.79;50.08;99301.94;4306710;81;21176;-83
2021/04/25 09:17:59;;;;;;;7.67;4.40;;;;;;;11.72;50.06;99301.27;4277262;81;21184;-83
2021/04/25 09:24:21;;;;;;;10.93;5.33;;;;;;;11.61;49.50;99304.44;4281794;81;21280;-83
2021/04/25 09:30:25;;;;;;;9.18;4.90;;;;;;;11.58;49.09;99292.05;4286182;81;21327;-84
2021/04/25 09:36:29;;;;;;;11.10;5.80;;;;;;;11.85;48.71;99289.45;4316725;81;21141;-84
2021/04/25 09:42:31;;;;;;;10.18;4.72;;;;;;;12.26;42.67;99293.19;4296464;81;21597;-83
2021/04/25 09:48:35;;;;;;;8.55;4.95;;;;;;;12.23;46.42;99282.97;4279268;81;21137;-83
2021/04/25 09:54:38;;;;;;;10.25;5.10;;;;;;;12.59;46.45;99286.82;4297664;83;21134;-83
2021/04/25 10:00:47;;;;;;;9.15;5.58;;;;;;;12.78;44.73;99279.67;4336190;81;21706;-83
2021/04/25 10:06:52;;;;;;;8.33;4.22;;;;;;;13.03;45.56;99267.52;4303428;81;21197;-83
2021/04/25 10:12:56;;;;;;;10.72;4.42;;;;;;;13.37;45.66;99270.23;4266718;81;21183;-83
2021/04/25 10:18:57;;;;;;;9.53;4.85;;;;;;;13.75;45.02;99279.22;4186049;84;21189;-83
2021/04/25 10:24:59;;;;;;;8.53;4.25;;;;;;;13.57;43.88;99273.65;4206499;84;21168;-83
2021/04/25 10:31:11;;;;;;;6.53;4.08;;;;;;;13.49;44.21;99265.75;4178578;84;21171;-83
2021/04/25 10:37:13;;;;;;;11.05;5.37;;;;;;;13.78;44.41;99256.42;4181701;84;21187;-85
2021/04/25 10:43:15;;;;;;;9.50;5.30;;;;;;;14.09;41.52;99261.20;4166212;84;21192;-84
2021/04/25 10:56:13;;;;;;;6.75;3.83;;;;;;;13.74;41.13;99261.91;4543605;77;23073;-84
2021/04/25 11:08:56;;;;;;;7.28;4.40;;;;;;;13.65;39.77;99259.33;4483052;78;21118;-84
2021/04/25 11:14:57;;;;;;;7.97;3.58;;;;;;;14.00;40.66;99264.31;4483452;78;21157;-84
2021/04/25 11:21:00;;;;;;;7.05;3.83;;;;;;;14.34;40.49;99267.54;4490360;78;21109;-84
2021/04/25 11:27:06;;;;;;;6.85;3.60;;;;;;;14.00;39.97;99278.08;4444498;80;21712;-84
2021/04/25 11:33:31;;;;;;;8.78;3.62;;;;;;;13.36;40.13;99279.05;4472621;80;21165;-84
2021/04/25 11:39:57;;;;;;;8.03;3.58;;;;;;;12.99;40.00;99273.53;4484807;79;21157;-84
2021/04/25 11:45:59;;;;;;;8.30;3.98;;;;;;;12.87;39.50;99265.61;4479265;79;21587;-85
2021/04/25 11:52:14;;;;;;;7.55;4.22;;;;;;;13.15;39.84;99257.55;4483237;78;21174;-82
2021/04/25 11:58:18;;;;;;;7.92;4.30;;;;;;;13.70;37.86;99245.97;4500977;78;21294;-83
2021/04/25 12:04:19;;;;;;;8.10;4.12;;;;;;;13.62;38.82;99243.02;4486551;78;21116;-84
2021/04/25 12:10:47;;;;;;;5.92;3.72;;;;;;;14.12;38.38;99242.52;4503975;78;21192;-84
2021/04/25 12:16:48;;;;;;;;;;;;;;;14.51;37.65;99250.22;4480481;79;21157;-85
2021/04/25 12:22:50;;;;;;;7.60;4.03;;;;;;;13.88;37.12;99250.14;4491840;78;20272;-84
2021/04/25 12:28:58;;;;;;;8.15;4.65;;;;;;;13.02;37.56;99250.80;4499200;78;21120;-84
2021/04/25 12:35:03;;;;;;;;;;;;;;;12.71;38.03;99255.49;4506084;78;21605;-85
2021/04/25 12:41:12;;;;;;;8.48;4.12;;;;;;;12.66;38.33;99260.77;4492340;78;20208;-84
2021/04/25 12:47:14;;;;;;;6.85;4.25;;;;;;;12.67;37.64;99262.33;4470542;78;21635;-85
2021/04/25 12:53:22;;;;;;;6.47;3.65;;;;;;;12.75;38.11;99257.09;4531898;78;21595;-85
2021/04/25 12:59:33;;;;;;;8.75;5.33;;;;;;;13.18;38.44;99247.96;4508144;78;21585;-85
2021/04/25 13:05:58;;;;;;;8.95;4.30;;;;;;;13.36;37.27;99245.29;4378036;80;21111;-85
2021/04/25 13:12:01;;;;;;;8.30;4.65;;;;;;;12.77;37.66;99256.70;4313298;81;21189;-85
2021/04/25 13:18:07;;;;;;;8.55;4.05;;;;;;;12.23;37.61;99262.98;4348581;81;21149;-83
2021/04/25 13:24:15;;;;;;;9.28;4.28;;;;;;;11.67;37.79;99261.03;4371035;81;21149;-84
2021/04/25 13:30:18;;;;;;;7.47;4.00;;;;;;;11.45;37.85;99255.10;4367170;81;21181;-84
2021/04/25 13:36:21;;;;;;;6.20;3.45;;;;;;;11.41;38.31;99258.37;4366479;81;21593;-83
2021/04/25 13:42:22;;;;;;;8.08;3.42;;;;;;;11.28;38.34;99276.20;4356607;81;21295;-83
2021/04/25 13:48:24;;;;;;;7.85;3.25;;;;;;;11.09;38.10;99271.66;4367873;81;21702;-84
2021/04/25 13:54:26;;;;;;;6.03;3.08;;;;;;;11.17;38.54;99267.06;4357995;81;21176;-84
2021/04/25 14:00:32;;;;;;;7.05;3.30;;;;;;;11.28;37.57;99263.30;4376922;81;21292;-83
2021/04/25 14:06:38;;;;;;;7.13;3.10;;;;;;;11.18;38.06;99267.28;4367191;81;21161;-83
2021/04/25 14:12:40;;;;;;;10.03;4.43;;;;;;;11.22;37.94;99262.63;4390769;81;21154;-84
2021/04/25 14:18:42;;;;;;;6.47;2.70;;;;;;;11.24;37.93;99263.05;4353698;81;21127;-84
2021/04/25 14:24:43;;;;;;;7.33;3.25;;;;;;;11.03;37.77;99268.47;4352910;81;21436;-85
2021/04/25 14:30:45;;;;;;;6.50;3.22;;;;;;;10.88;37.95;99271.39;4393524;80;21157;-85
2021/04/25 14:36:47;;;;;;;5.05;2.60;;;;;;;10.81;38.15;99269.33;4325856;81;21170;-84
2021/04/25 14:42:50;;;;;;;9.40;2.87;;;;;;;10.81;38.13;99267.16;4407946;80;21594;-85
2021/04/25 14:48:51;;;;;;;8.68;3.25;;;;;;;10.90;38.06;99259.46;4392090;80;21146;-85
2021/04/25 14:54:53;;;;;;;7.00;2.90;;;;;;;10.80;37.86;99273.24;4361186;81;21566;-85
2021/04/25 15:00:54;;;;;;;9.30;2.47;;;;;;;10.66;37.53;99276.34;4349758;81;21299;-84
2021/04/25 15:06:56;;;;;;;4.80;2.40;;;;;;;10.33;37.65;99283.05;4353459;81;21602;-84
2021/04/25 15:12:59;;;;;;;8.03;2.62;;;;;;;10.15;37.65;99286.08;4357442;81;21137;-84
2021/04/25 15:19:00;;;;;;;3.72;2.05;;;;;;;10.07;37.93;99279.66;4368744;81;21125;-84
2021/04/25 15:25:05;;;;;;;5.30;2.45;;;;;;;9.93;37.89;99290.32;4365624;81;21153;-83
2021/04/25 15:31:08;;;;;;;5.92;3.05;;;;;;;9.72;37.98;99291.31;4387178;81;21343;-84
2021/04/25 15:37:17;;;;;;;9.08;3.00;;;;;;;9.66;37.17;99294.69;4359399;81;21288;-84
2021/04/25 15:43:19;;;;;;;4.78;2.30;;;;;;;9.43;38.02;99294.63;4379353;81;21111;-83
2021/04/25 15:49:21;;;;;;;4.92;2.30;;;;;;;9.41;37.65;99307.87;4355282;80;21149;-84
2021/04/25 15:55:22;;;;;;;3.47;2.00;;;;;;;9.43;37.55;99298.72;4371365;81;21820;-83
2021/04/25 16:01:24;;;;;;;8.15;2.45;;;;;;;9.43;37.60;99310.45;4367511;81;21160;-84
2021/04/25 16:07:26;;;;;;;7.15;3.08;;;;;;;9.19;37.63;99312.67;4366511;81;21144;-84
2021/04/25 16:13:27;;;;;;;14.87;5.35;;;;;;;8.87;37.46;99323.45;4376947;81;21161;-83
2021/04/25 16:19:29;;;;;;;4.90;2.65;;;;;;;8.61;37.55;99331.42;4352980;81;21137;-83
2021/04/25 16:25:31;;;;;;;6.40;2.35;;;;;;;8.46;38.57;99328.91;4346035;81;21280;-83
2021/04/25 16:31:32;;;;;;;22.37;13.05;;;;;;;8.43;38.57;99340.53;4356287;81;21140;-84
2021/04/25 16:37:35;;;;;;;17.80;9.80;;;;;;;8.38;38.77;99333.97;4368002;81;21541;-84
2021/04/25 16:43:37;;;;;;;9.90;3.95;;;;;;;8.47;39.36;99336.53;4368265;81;21562;-83
2021/04/25 16:49:45;;;;;;;4.85;1.95;;;;;;;8.53;38.72;99340.58;4348698;81;21162;-83
2021/04/25 17:06:57;;;;;;;6.28;2.55;;;;;;;7.83;38.25;99345.74;4270865;82;23052;-83
2021/04/25 17:12:59;;;;;;;5.62;2.27;;;;;;;7.69;38.78;99346.72;4238490;82;21172;-84
2021/04/25 17:19:01;;;;;;;4.40;2.02;;;;;;;7.57;38.36;99351.42;4284684;83;21751;-84
2021/04/25 17:25:07;;;;;;;5.25;2.27;;;;;;;7.38;38.32;99363.51;4232562;84;21161;-83
2021/04/25 17:31:08;;;;;;;7.08;2.98;;;;;;;7.18;38.16;99365.83;4286457;83;21149;-83
2021/04/25 17:37:10;;;;;;;7.30;2.40;;;;;;;6.99;37.94;99380.04;4271791;82;21638;-85
2021/04/25 17:43:13;;;;;;;15.23;6.80;;;;;;;6.83;38.75;99379.72;4275169;82;21681;-84
2021/04/25 17:49:16;;;;;;;18.90;9.23;;;;;;;6.70;39.73;99383.01;4187882;84;21163;-84
2021/04/25 17:55:18;;;;;;;15.93;7.40;;;;;;;6.52;40.14;99384.34;4282759;83;21876;-85
2021/04/25 18:01:21;;;;;;;43.60;20.70;;;;;;;6.32;41.40;99391.47;4284587;82;21633;-84
2021/04/25 18:07:22;;;;;;;30.65;14.93;;;;;;;6.11;41.36;99403.51;4240093;83;21599;-84
2021/04/25 18:13:24;;;;;;;29.67;13.38;;;;;;;5.81;41.17;99410.96;4244672;83;21157;-84
2021/04/25 18:19:25;;;;;;;21.10;10.15;;;;;;;5.55;41.23;99417.73;4229608;83;21200;-84
2021/04/25 18:25:55;;;;;;;22.35;9.83;;;;;;;5.29;41.04;99423.92;4247023;83;21162;-84
2021/04/25 18:31:56;;;;;;;20.25;9.55;;;;;;;4.94;41.87;99434.73;4232127;83;21225;-83
2021/04/25 18:38:10;;;;;;;27.42;9.03;;;;;;;4.81;42.52;99438.70;4241383;83;21581;-83
2021/04/25 18:44:12;;;;;;;20.00;8.75;;;;;;;4.68;42.35;99449.20;4233276;83;21185;-84
2021/04/25 18:50:16;;;;;;;22.22;7.92;;;;;;;4.40;43.88;99449.96;4248549;82;21181;-84
2021/04/25 18:56:18;;;;;;;21.52;8.45;;;;;;;4.28;44.47;99459.30;4242083;82;21156;-83
2021/04/25 19:02:20;;;;;;;12.40;5.05;;;;;;;4.10;43.41;99463.17;4236298;83;21617;-83
2021/04/25 19:08:26;;;;;;;11.55;5.20;;;;;;;4.03;43.37;99464.20;4174094;85;21185;-83
2021/04/25 19:14:25;;;;;;;15.93;5.85;;;;;;;4.04;43.77;99460.39;4168328;85;21176;-83
2021/04/25 19:20:27;;;;;;;15.10;6.12;;;;;;;3.94;43.74;99463.41;4205892;83;21181;-83
2021/04/25 19:26:29;;;;;;;13.35;6.40;;;;;;;3.79;44.00;99467.39;4176322;83;21146;-83
2021/04/25 19:32:31;;;;;;;21.93;9.23;;;;;;;3.64;44.56;99472.48;4179157;84;21185;-83
2021/04/25 19:38:32;;;;;;;24.85;9.75;;;;;;;3.44;44.77;99465.80;4221953;83;21179;-83
2021/04/25 19:44:34;;;;;;;16.50;7.42;;;;;;;3.36;46.05;99467.93;4243372;82;21165;-84
2021/04/25 19:50:41;;;;;;;20.17;8.78;;;;;;;3.18;45.95;99477.91;4236680;83;21200;-84
2021/04/25 19:56:43;;;;;;;24.75;10.48;;;;;;;2.80;46.64;99484.16;4252972;82;21117;-84
2021/04/25 20:02:46;;;;;;;28.47;13.35;;;;;;;2.55;47.03;99480.21;4169988;83;21560;-84
2021/04/25 20:08:48;;;;;;;57.60;21.10;;;;;;;2.30;47.75;99484.91;4217623;82;21638;-83
2021/04/25 20:14:50;;;;;;;51.00;20.92;;;;;;;2.13;48.24;99488.08;4219084;83;22047;-82
2021/04/25 20:20:53;;;;;;;63.52;25.55;;;;;;;1.97;49.32;99493.05;4209452;83;21184;-82
2021/04/25 20:26:54;;;;;;;62.73;24.52;;;;;;;1.90;49.75;99483.77;4230041;83;21626;-83
2021/04/25 20:32:56;;;;;;;68.02;27.73;;;;;;;1.85;50.42;99480.63;4290300;81;21117;-83
2021/04/25 20:38:57;;;;;;;67.20;27.02;;;;;;;1.67;50.51;99484.31;4291133;81;21193;-82
2021/04/25 20:44:59;;;;;;;66.57;24.55;;;;;;;1.52;51.33;99483.28;4227418;84;21627;-83
2021/04/25 20:51:00;;;;;;;103.00;38.02;;;;;;;1.39;52.07;99482.78;4287367;82;21185;-83
2021/04/25 20:57:03;;;;;;;72.22;25.48;;;;;;;1.19;51.90;99490.75;4290636;82;21570;-83
2021/04/25 21:03:06;;;;;;;88.65;33.02;;;;;;;0.97;53.14;99496.05;4291012;81;21304;-83
2021/04/25 21:09:08;;;;;;;53.87;21.13;;;;;;;0.88;52.01;99493.81;4292591;82;21180;-83
2021/04/25 21:15:11;;;;;;;121.60;41.30;;;;;;;0.73;53.15;99495.46;4292446;81;21188;-82
2021/04/25 21:21:13;;;;;;;98.43;35.23;;;;;;;0.49;55.02;99494.02;4291605;83;21169;-83
2021/04/25 21:27:14;;;;;;;88.22;33.42;;;;;;;0.37;54.94;99493.16;4290623;83;21590;-83
2021/04/25 21:33:16;;;;;;;94.70;33.78;;;;;;;0.28;55.26;99489.55;4293453;82;21195;-83
2021/04/25 21:39:17;;;;;;;104.17;37.97;;;;;;;0.24;55.79;99482.34;4290861;81;21137;-83
2021/04/25 21:45:28;;;;;;;71.67;25.87;;;;;;;0.28;56.59;99482.02;4294161;82;21609;-82
2021/04/25 21:51:31;;;;;;;95.37;34.33;;;;;;;0.13;56.84;99486.30;4285397;82;21206;-82
2021/04/25 21:57:33;;;;;;;94.00;31.47;;;;;;;0.06;56.87;99482.66;4289006;82;21300;-82
2021/04/25 22:03:36;;;;;;;60.40;21.83;;;;;;;-0.10;56.92;99474.03;4291306;81;21159;-82
2021/04/25 22:09:38;;;;;;;65.67;22.40;;;;;;;-0.20;58.26;99472.03;4296273;82;21200;-82
2021/04/25 22:15:39;;;;;;;42.40;18.23;;;;;;;0.03;58.76;99475.71;4293426;82;21147;-83
2021/04/25 22:21:41;;;;;;;50.40;18.37;;;;;;;-0.14;58.07;99471.66;4293292;82;21172;-82
2021/04/25 22:27:42;;;;;;;34.23;14.67;;;;;;;-0.26;58.37;99463.25;4230972;82;21165;-83
2021/04/25 22:33:44;;;;;;;43.10;16.93;;;;;;;-0.03;60.22;99458.83;4234329;83;21286;-82
2021/04/25 22:39:46;;;;;;;44.40;18.10;;;;;;;-0.21;59.33;99456.45;4236464;83;21181;-82
2021/04/25 22:45:47;;;;;;;49.37;19.87;;;;;;;-0.46;59.39;99450.66;4231734;83;21779;-83
2021/04/25 22:51:49;;;;;;;52.13;21.37;;;;;;;-0.45;60.13;99451.70;4230210;83;21200;-82
2021/04/25 22:57:51;;;;;;;57.97;21.37;;;;;;;-0.64;59.90;99458.20;4216478;83;21314;-83
2021/04/25 23:03:53;;;;;;;45.27;17.73;;;;;;;-0.83;59.94;99454.13;4226258;83;21587;-82
2021/04/25 23:09:54;;;;;;;52.63;19.90;;;;;;;-0.88;62.82;99451.53;4292483;82;21142;-82
2021/04/25 23:15:55;;;;;;;46.03;18.50;;;;;;;-1.09;60.99;99444.80;4293867;82;21366;-82
2021/04/25 23:21:57;;;;;;;49.90;20.03;;;;;;;-1.07;61.23;99441.30;4292303;82;21200;-82
2021/04/25 23:27:59;;;;;;;47.60;19.33;;;;;;;-1.04;61.36;99434.53;4290535;81;21162;-82
2021/04/25 23:34:00;;;;;;;46.70;18.03;;;;;;;-1.06;61.69;99438.85;4291624;82;21181;-82
2021/04/25 23:40:04;;;;;;;42.80;16.53;;;;;;;-0.74;63.35;99449.72;4288053;81;21208;-82
2021/04/25 23:46:05;;;;;;;38.10;15.30;;;;;;;-0.49;62.84;99445.33;4292783;81;21277;-82
2021/04/25 23:52:07;;;;;;;38.37;15.93;;;;;;;-0.43;63.09;99442.80;4286464;82;21153;-81
2021/04/25 23:58:09;;;;;;;43.40;18.13;;;;;;;-0.43;63.35;99436.62;4286897;81;21121;-82
